Latest Coastal Weather Observations for Lockhart River

IDQ60701

Issued at 11:21 am EST Wednesday 25 January 2017 (issued every 10 minutes, with the page automatically refreshed every 10 minutes)

About coastal observations | Map of coastal stations | Coastal observations for QLD | Marine services | Other Formats
Station Details ID: 028008 Name: LOCKHART RIVER AIRPORT Lat: -12.79 Lon: 143.30 Height: 18.5 m
Data from the previous 72 hours. | See also: Recent months at Lockhart River
Date/Time
EST
Temp
°C
Wind Pressure Rain since
9am
mm
Weather Cloud Vis
km
Sea
Height
m
Swell
Dir  Spd
kts
Gust
kts
hPa Trend Height
m
Period
s
Dir
25/11:00am 31.0 SE 4 8 1011.4 - 0.0 - Partly cloudy - - - - -
25/10:30am 30.4 S 3 5 1011.6 - 0.0 - Partly cloudy - - - - -
25/10:00am 30.3 S 3 5 1011.9 - 0.0 - Partly cloudy - - - - -
25/09:30am 29.5 E 1 4 1011.7 - 0.0 - Partly cloudy - - - - -
25/09:00am 28.5 SW 1 3 1011.9 - 6.8 - - - - - - -
25/08:30am 27.3 CALM 0 3 1012.1 - 6.8 - - - - - - -
25/08:00am 25.8 NW 3 4 1011.9 - 6.8 - - - - - - -
25/07:30am 24.6 WNW 1 4 1011.7 - 6.8 - - - - - - -
25/07:00am 23.4 CALM 0 0 1011.5 - 6.8 - - - - - - -
25/06:30am 22.7 CALM 0 4 1011.3 - 6.8 - - - - - - -
25/06:00am 22.6 CALM 0 3 1010.8 - 6.8 - Mostly clear - - - - -
25/05:30am 22.6 CALM 0 4 1010.4 - 6.8 - - - - - - -
25/05:00am 22.6 CALM 0 0 1010.2 - 6.8 - - - - - - -
25/04:30am 22.6 WNW 4 4 1010.2 - 6.6 - - - - - - -
25/04:00am 22.7 NW 3 5 1010.1 - 6.6 - - - - - - -
25/03:30am 22.9 NW 1 4 1010.0 - 6.6 - - - - - - -
25/03:00am 23.1 CALM 0 0 1010.1 - 6.6 - - - - - - -
25/02:30am 23.2 CALM 0 0 1010.5 - 6.6 - - - - - - -
25/02:00am 23.1 CALM 0 0 1010.8 - 6.6 - Partly cloudy - - - - -
25/01:30am 23.2 CALM 0 0 1011.0 - 6.6 - Partly cloudy - - - - -
25/01:00am 23.2 CALM 0 0 1011.3 - 6.6 - - - - - - -
25/12:30am 23.3 CALM 0 3 1011.5 - 6.6 - - - - - - -
25/12:00am 23.5 CALM 0 0 1011.8 - 6.6 - - - - - - -
 
Date/Time
EST
Temp
°C
Wind Pressure Rain since
9am
mm
Weather Cloud Vis
km
Sea
Height
m
Swell
Dir  Spd
kts
Gust
kts
hPa Trend Height
m
Period
s
Dir
24/11:30pm 23.5 NNW 1 3 1011.9 - 6.6 - - - - - - -
24/11:00pm 23.7 NNW 2 3 1011.8 - 6.6 - - - - - - -
24/10:30pm 23.9 CALM 0 4 1011.9 - 6.6 - - - - - - -
24/10:00pm 24.0 ENE 1 4 1011.8 - 6.6 - - - - - - -
24/09:30pm 24.1 NNE 3 4 1011.4 - 6.6 - - - - - - -
24/09:00pm 24.1 CALM 0 0 1011.4 - 6.6 - Mostly cloudy - - - - -
24/08:30pm 24.1 WNW 5 6 1011.1 - 6.6 - Partly cloudy - - - - -
24/08:00pm 24.0 NNW 3 5 1011.0 - 6.6 - Cloudy - - - - -
24/07:30pm 24.1 NW 6 8 1010.6 - 6.6 - Cloudy - - - - -
24/07:00pm 24.1 NNW 5 7 1010.5 - 6.6 - Partly cloudy - - - - -
24/06:30pm 24.2 NW 10 13 1010.5 - 6.6 - Partly cloudy - - - - -
24/06:00pm 24.8 NNW 7 10 1010.7 - 5.2 Rain Cloudy - - - - -
24/05:30pm 26.4 WSW 11 19 1009.8 - 0.2 - Partly cloudy - - - - -
24/05:00pm 28.7 SW 3 4 1009.4 - 0.2 - Partly cloudy - - - - -
24/04:30pm 28.7 WNW 5 7 1009.1 - 0.2 - Partly cloudy - - - - -
24/04:00pm 28.7 WNW 3 6 1008.8 - 0.2 - Partly cloudy - - - - -
24/03:30pm 28.9 SE 4 7 1008.8 - 0.2 - Partly cloudy - - - - -
24/03:00pm 28.4 CALM 0 0 1009.2 - 0.2 Recent precip. Cloudy - - - - -
24/02:30pm 27.4 ENE 2 4 1009.8 - 0.2 - Partly cloudy - - - - -
24/02:00pm 27.6 SSW 8 13 1010.2 - 0.0 - Partly cloudy - - - - -
24/01:30pm 28.0 W 5 7 1010.4 - 0.0 - Partly cloudy - - - - -
24/01:00pm 27.0 NW 6 10 1010.3 - 0.0 - Partly cloudy - - - - -
24/12:30pm 27.3 W 12 20 1010.8 - 0.0 - Partly cloudy - - - - -
24/12:00pm 31.4 E 8 13 1010.7 - 0.0 - Mostly clear - - - - -
24/11:30am 31.2 E 6 9 1011.2 - 0.0 - Partly cloudy - - - - -
24/11:00am 30.6 SE 3 7 1011.4 - 0.0 - Partly cloudy - - - - -
24/10:30am 30.1 E 4 6 1011.5 - 0.0 - Partly cloudy - - - - -
24/10:00am 29.9 ENE 3 5 1011.9 - 0.0 - - - - - - -
24/09:30am 29.0 CALM 0 0 1012.1 - 0.0 - - - - - - -
24/09:00am 27.2 CALM 0 3 1012.3 - 44.2 - Mostly clear - - - - -
24/08:30am 25.9 WNW 3 4 1012.2 - 44.2 - Partly cloudy - - - - -
24/08:00am 24.6 WNW 2 3 1012.0 - 44.2 - Cloudy - - - - -
24/07:30am 23.8 CALM 0 0 1011.7 - 44.2 - Partly cloudy - - - - -
24/07:00am 23.2 CALM 0 0 1011.3 - 44.2 - - - - - - -
24/06:30am 22.6 NW 1 4 1011.1 - 44.2 - - - - - - -
24/06:00am 22.6 NW 1 4 1010.5 - 44.2 - - - - - - -
24/05:30am 22.7 CALM 0 0 1010.0 - 44.2 - - - - - - -
24/05:00am 22.8 CALM 0 0 1009.7 - 44.2 - - - - - - -
24/04:30am 22.8 NW 3 3 1009.7 - 44.2 - - - - - - -
24/04:00am 23.0 CALM 0 0 1009.7 - 44.2 - - - - - - -
24/03:30am 23.2 CALM 0 0 1009.7 - 44.2 - - - - - - -
24/03:00am 23.2 CALM 0 0 1009.9 - 44.2 - - - - - - -
24/02:30am 23.3 CALM 0 4 1009.9 - 44.2 - - - - - - -
24/02:00am 23.5 WNW 3 3 1010.1 - 44.2 - Partly cloudy - - - - -
24/01:30am 23.5 NW 3 4 1010.5 - 44.2 - Cloudy - - - - -
24/01:00am 23.7 CALM 0 0 1011.0 - 44.2 - Partly cloudy - - - - -
24/12:30am 23.7 CALM 0 0 1011.3 - 44.2 - Partly cloudy - - - - -
24/12:00am 23.8 CALM 0 0 1011.6 - 44.2 - Partly cloudy - - - - -
 
Date/Time
EST
Temp
°C
Wind Pressure Rain since
9am
mm
Weather Cloud Vis
km
Sea
Height
m
Swell
Dir  Spd
kts
Gust
kts
hPa Trend Height
m
Period
s
Dir
23/11:30pm 23.8 CALM 0 0 1011.5 - 44.2 - - - - - - -
23/11:00pm 24.1 CALM 0 0 1011.3 - 44.2 - - - - - - -
23/10:30pm 24.1 CALM 0 0 1011.1 - 44.2 - - - - - - -
23/10:00pm 24.5 CALM 0 0 1010.9 - 44.2 - - - - - - -
23/09:30pm 24.6 CALM 0 0 1010.7 - 44.2 - - - - - - -
23/09:00pm 24.9 NE 1 3 1010.1 - 44.2 - Mostly cloudy - - - - -
23/08:30pm 25.0 NNW 1 4 1010.0 - 44.2 - - - - - - -
23/08:00pm 25.1 NNW 2 5 1009.9 - 44.2 - - - - - - -
23/07:30pm 25.6 WSW 5 7 1009.5 - 44.2 - - - - - - -
23/07:00pm 25.9 CALM 0 3 1009.4 - 44.2 - - - - - - -
23/06:30pm 26.2 SSW 3 5 1009.1 - 44.2 - - - - - - -
23/06:00pm 26.3 S 5 7 1009.0 - 44.2 - Mostly cloudy - - - - -
23/05:30pm 26.5 SSW 4 6 1009.2 - 44.2 - Partly cloudy - - - - -
23/05:00pm 26.7 SSW 5 6 1008.9 - 44.2 - Partly cloudy - - - - -
23/04:30pm 27.0 S 7 9 1008.5 - 44.2 - - - - - - -
23/04:00pm 26.9 S 5 7 1008.1 - 44.2 - - - - - - -
23/03:30pm 26.1 WNW 3 6 1008.3 - 44.2 - Partly cloudy - - - - -
23/03:00pm 25.7 WNW 6 8 1009.0 - 44.2 Rain Mostly cloudy - - - - -
23/02:30pm 25.2 NW 10 13 1009.5 - 44.0 - Partly cloudy - - - - -
23/02:00pm 26.7 NNW 9 14 1009.5 - 43.4 - Partly cloudy - - - - -
23/01:30pm 25.9 SSW 2 6 1009.9 - 43.4 - Partly cloudy - - - - -
23/01:00pm 25.6 ESE 5 8 1009.6 - 43.4 - Partly cloudy - - - - -
23/12:40pm 24.9 ESE 6 8 1009.9 - 42.8 - Partly cloudy - - - - -
23/12:30pm 25.0 SSE 7 8 1009.9 - 42.4 - Partly cloudy - - - - -
23/12:09pm 25.5 NNW 10 15 1010.2 - 25.6 - Partly cloudy - - - - -
23/12:00pm 26.0 WNW 13 21 1010.0 - 7.2 Rain Cloudy - - - - -
23/11:55am 27.7 SSE 9 21 1009.5 - 1.0 - Partly cloudy - - - - -
23/11:30am 31.0 NNW 1 4 1009.5 - 0.0 - Partly cloudy - - - - -
23/11:00am 30.7 SSW 3 7 1009.6 - 0.0 - Partly cloudy - - - - -
23/10:30am 29.8 NNW 3 5 1010.4 - 0.0 - - - - - - -
23/10:00am 29.0 W 1 4 1010.9 - 0.0 - Partly cloudy - - - - -
23/09:30am 27.6 CALM 0 0 1011.3 - 0.0 - Cloudy - - - - -
23/09:00am 26.8 CALM 0 0 1011.3 - 0.2 - Mostly cloudy - - - - -
23/08:30am 26.2 ESE 4 5 1011.0 - 0.2 - Partly cloudy - - - - -
23/08:00am 25.5 SE 1 4 1010.4 - 0.2 - Partly cloudy - - - - -
23/07:30am 25.0 CALM 0 0 1010.2 - 0.2 - Partly cloudy - - - - -
23/07:00am 24.6 CALM 0 0 1009.6 - 0.2 - Cloudy - - - - -
23/06:30am 24.5 SE 2 4 1008.8 - 0.2 - - - - - - -
23/06:00am 24.3 NNW 2 7 1008.2 - 0.2 - Partly cloudy - - - - -
23/05:30am 24.2 NW 1 4 1007.9 - 0.2 - Partly cloudy - - - - -
23/05:00am 24.2 CALM 0 0 1007.7 - 0.2 - Cloudy - - - - -
23/04:30am 24.4 CALM 0 0 1007.6 - 0.2 - Partly cloudy - - - - -
23/04:00am 24.0 CALM 0 0 1007.6 - 0.2 - Partly cloudy - - - - -
23/03:30am 24.0 WNW 2 4 1007.8 - 0.2 - - - - - - -
23/03:00am 24.1 CALM 0 0 1008.0 - 0.2 - - - - - - -
23/02:30am 24.4 CALM 0 0 1008.0 - 0.2 - - - - - - -
23/02:00am 24.6 E 1 4 1008.4 - 0.2 - - - - - - -
23/01:30am 24.5 CALM 0 3 1008.8 - 0.2 - - - - - - -
23/01:00am 24.7 CALM 0 0 1009.0 - 0.2 - - - - - - -
23/12:30am 25.0 SE 3 4 1009.1 - 0.2 - - - - - - -
23/12:00am 25.1 E 4 6 1009.4 - 0.2 - - - - - - -
 
Date/Time
EST
Temp
°C
Wind Pressure Rain since
9am
mm
Weather Cloud Vis
km
Sea
Height
m
Swell
Dir  Spd
kts
Gust
kts
hPa Trend Height
m
Period
s
Dir
22/11:30pm 25.1 E 3 4 1009.4 - 0.2 - - - - - - -
22/11:00pm 25.4 NE 1 4 1009.3 - 0.2 - - - - - - -
22/10:30pm 25.9 NNE 1 4 1009.2 - 0.2 - - - - - - -
22/10:00pm 26.6 SSW 6 7 1009.0 - 0.2 - - - - - - -
22/09:30pm 27.0 WSW 4 6 1009.2 - 0.2 - - - - - - -
22/09:00pm 27.2 W 5 8 1009.1 - 0.2 - Partly cloudy - - - - -
22/08:30pm 27.3 W 4 11 1009.1 - 0.2 - Partly cloudy - - - - -
22/08:00pm 26.9 SSW 5 7 1009.0 - 0.2 - Partly cloudy - - - - -
22/07:30pm 27.7 W 6 8 1008.8 - 0.2 - Partly cloudy - - - - -
22/07:00pm 27.3 NW 3 5 1008.6 - 0.2 - Partly cloudy - - - - -
22/06:30pm 27.1 CALM 0 3 1008.0 - 0.2 - Partly cloudy - - - - -
22/06:00pm 27.2 ESE 3 5 1007.5 - 0.2 Recent precip. Cloudy - - - - -
22/05:30pm 27.3 SE 7 9 1007.2 - 0.0 - Partly cloudy - - - - -
22/05:00pm 29.2 WNW 10 16 1006.8 - 0.0 - Partly cloudy - - - - -
22/04:30pm 31.4 N 8 10 1006.0 - 0.0 - Partly cloudy - - - - -
22/04:00pm 32.0 NW 10 16 1005.9 - 0.0 - Partly cloudy - - - - -
22/03:30pm 33.7 WNW 9 13 1006.1 - 0.0 - Partly cloudy - - - - -
22/03:00pm 32.8 W 12 16 1006.3 - 0.0 - Partly cloudy - - - - -
22/02:30pm 33.9 W 11 15 1006.6 - 0.0 - Partly cloudy - - - - -
22/02:00pm 33.7 WNW 8 14 1006.9 - 0.0 - Partly cloudy - - - - -
22/01:30pm 33.3 NW 9 13 1007.5 - 0.0 - Partly cloudy - - - - -
22/01:00pm 33.0 NW 8 14 1007.8 - 0.0 - - - - - - -
22/12:30pm 31.8 WNW 9 13 1008.3 - 0.0 - Partly cloudy - - - - -
22/12:00pm 32.5 WNW 8 13 1008.6 - 0.0 - Mostly cloudy - - - - -
22/11:30am 31.6 NW 10 15 1009.0 - 0.0 - Partly cloudy - - - - -

Other Formats:

Comma delimited format used in spreadsheet applications
http://www.bom.gov.au/fwo/IDQ60701/IDQ60701.94186.axf

JavaScript Object Notation format (JSON) in row-major order
http://www.bom.gov.au/fwo/IDQ60701/IDQ60701.94186.json